createdAt,value
2023-05-18T12:00:33.835Z,101160.34
2023-05-18T12:03:04.563Z,101169.41
2023-05-18T12:05:42.315Z,101161.53
2023-05-18T12:08:12.612Z,101157.31
2023-05-18T12:10:39.881Z,101156.44
2023-05-18T12:13:06.899Z,101155.78
2023-05-18T12:15:34.001Z,101159.94
2023-05-18T12:18:01.164Z,101162.88
2023-05-18T12:20:28.472Z,101153.81
2023-05-18T12:22:56.042Z,101151.28
2023-05-18T12:25:25.518Z,101151.09
2023-05-18T12:27:53.182Z,101148.78
2023-05-18T12:30:35.201Z,101140.97
2023-05-18T12:33:03.288Z,101143.31
2023-05-18T12:35:31.258Z,101148.94
2023-05-18T12:38:02.378Z,101140.00
2023-05-18T12:40:44.895Z,101145.25
2023-05-18T12:43:14.150Z,101147.56
2023-05-18T12:45:41.207Z,101144.13
2023-05-18T12:48:09.747Z,101149.38
2023-05-18T12:50:38.840Z,101142.63
2023-05-18T12:53:05.615Z,101135.09
2023-05-18T12:55:33.588Z,101142.53
2023-05-18T12:58:26.172Z,101136.94
2023-05-18T13:00:55.257Z,101136.78
2023-05-18T13:03:22.725Z,101143.88
2023-05-18T13:06:16.766Z,101138.81
2023-05-18T13:08:43.624Z,101140.75
2023-05-18T13:11:14.754Z,101131.59
2023-05-18T13:14:00.566Z,101134.03
2023-05-18T13:16:32.057Z,101134.03
2023-05-18T13:19:09.136Z,101128.78
2023-05-18T13:21:36.160Z,101137.34
2023-05-18T13:24:03.914Z,101138.13
2023-05-18T13:26:31.342Z,101138.22
2023-05-18T13:29:01.007Z,101140.66
2023-05-18T13:31:29.684Z,101130.13
2023-05-18T13:33:57.374Z,101140.31
2023-05-18T13:36:24.211Z,101127.59
2023-05-18T13:38:52.433Z,101125.81
2023-05-18T13:41:23.562Z,101118.72
2023-05-18T13:43:55.410Z,101120.72
2023-05-18T13:46:24.810Z,101123.00
2023-05-18T13:48:55.287Z,101120.34
2023-05-18T13:51:21.963Z,101112.16
2023-05-18T13:53:48.685Z,101112.47
2023-05-18T13:56:18.440Z,101112.97
2023-05-18T13:58:49.460Z,101114.31
2023-05-18T14:01:21.696Z,101108.06
2023-05-18T14:03:51.027Z,101114.75
2023-05-18T14:06:17.699Z,101111.97
2023-05-18T14:08:47.343Z,101101.34
2023-05-18T14:11:13.930Z,101108.97
2023-05-18T14:13:43.580Z,101104.09
2023-05-18T14:16:14.348Z,101109.09
2023-05-18T14:18:44.117Z,101107.03
2023-05-18T14:21:13.756Z,101099.50
2023-05-18T14:23:44.321Z,101093.44
2023-05-18T14:26:13.636Z,101098.47
2023-05-18T14:28:40.264Z,101096.06
2023-05-18T14:31:09.151Z,101102.16
2023-05-18T14:33:38.830Z,101103.22
2023-05-18T14:36:08.503Z,101105.50
2023-05-18T14:38:37.537Z,101101.06
2023-05-18T14:41:07.375Z,101100.72
2023-05-18T14:43:37.685Z,101100.25
2023-05-18T14:46:08.630Z,101100.88
2023-05-18T14:48:35.879Z,101106.78
2023-05-18T14:51:02.630Z,101100.72
2023-05-18T14:53:29.235Z,101103.34
2023-05-18T14:55:59.532Z,101103.31
2023-05-18T14:58:26.268Z,101095.31
2023-05-18T15:00:52.957Z,101097.28
2023-05-18T15:03:21.730Z,101096.00
2023-05-18T15:05:48.617Z,101094.19
2023-05-18T15:08:15.481Z,101091.81
2023-05-18T15:10:44.637Z,101092.03
2023-05-18T15:13:14.736Z,101090.78
2023-05-18T15:15:43.126Z,101095.72
2023-05-18T15:18:13.084Z,101099.69
2023-05-18T15:20:43.456Z,101092.03
2023-05-18T15:23:13.536Z,101091.94
2023-05-18T15:25:40.881Z,101095.19
2023-05-18T15:28:09.261Z,101088.38
2023-05-18T15:30:36.108Z,101090.00
2023-05-18T15:33:07.951Z,101089.56
2023-05-18T15:35:38.477Z,101089.94
2023-05-18T15:38:07.813Z,101085.47
2023-05-18T15:40:36.480Z,101092.13
2023-05-18T15:43:03.768Z,101090.22
2023-05-18T15:45:32.695Z,101078.13
2023-05-18T15:47:59.359Z,101085.31
2023-05-18T15:50:26.819Z,101090.97
2023-05-18T15:52:53.464Z,101077.84
2023-05-18T15:55:20.292Z,101080.00
2023-05-18T15:57:47.769Z,101080.50
2023-05-18T16:00:15.833Z,101089.44
2023-05-18T16:02:42.509Z,101082.84
2023-05-18T16:05:09.781Z,101085.75
2023-05-18T16:07:37.394Z,101090.44
2023-05-18T16:10:04.273Z,101084.50
2023-05-18T16:12:33.218Z,101093.97
2023-05-18T16:14:59.860Z,101086.00
2023-05-18T16:17:26.659Z,101080.47
2023-05-18T16:19:53.412Z,101082.63
2023-05-18T16:22:20.073Z,101085.44
2023-05-18T16:24:46.750Z,101083.88
2023-05-18T16:27:14.990Z,101084.00
2023-05-18T16:29:42.496Z,101087.66
2023-05-18T16:32:11.237Z,101079.31
2023-05-18T16:34:40.592Z,101090.06
2023-05-18T16:37:07.296Z,101082.38
2023-05-18T16:39:33.956Z,101085.22
2023-05-18T16:42:00.958Z,101083.91
2023-05-18T16:44:27.611Z,101088.44
2023-05-18T16:46:54.437Z,101080.00
2023-05-18T16:49:21.382Z,101090.63
2023-05-18T16:51:48.071Z,101086.88
2023-05-18T16:54:14.716Z,101089.25
2023-05-18T16:56:41.862Z,101088.72
2023-05-18T16:59:11.986Z,101092.75
2023-05-18T17:01:43.077Z,101097.78
2023-05-18T17:04:11.569Z,101096.50
2023-05-18T17:06:38.387Z,101099.50
2023-05-18T17:09:06.402Z,101092.84
2023-05-18T17:11:33.834Z,101095.25
2023-05-18T17:14:03.258Z,101093.81
2023-05-18T17:16:30.516Z,101095.06
2023-05-18T17:18:58.051Z,101099.84
2023-05-18T17:21:31.172Z,101093.84
2023-05-18T17:23:57.778Z,101096.69
2023-05-18T17:26:26.697Z,101088.03
2023-05-18T17:28:53.632Z,101091.56
2023-05-18T17:31:20.380Z,101101.22
2023-05-18T17:33:47.493Z,101094.91
2023-05-18T17:36:19.332Z,101100.91
2023-05-18T17:38:46.996Z,101100.00
2023-05-18T17:41:17.960Z,101099.91
2023-05-18T17:43:44.671Z,101092.78
2023-05-18T17:46:11.761Z,101090.19
2023-05-18T17:48:41.311Z,101090.25
2023-05-18T17:51:08.135Z,101092.13
2023-05-18T17:53:34.746Z,101098.38
2023-05-18T17:56:01.479Z,101094.66
2023-05-18T17:58:28.491Z,101097.19
2023-05-18T18:00:55.137Z,101097.94
2023-05-18T18:03:23.085Z,101093.19
2023-05-18T18:05:49.890Z,101096.38
2023-05-18T18:08:19.361Z,101095.13
2023-05-18T18:10:46.889Z,101095.78
2023-05-18T18:13:13.587Z,101098.94
2023-05-18T18:15:40.366Z,101101.38
2023-05-18T18:18:07.864Z,101096.78
2023-05-18T18:20:36.684Z,101095.63
2023-05-18T18:23:03.851Z,101090.94
2023-05-18T18:25:32.145Z,101103.88
2023-05-18T18:27:59.079Z,101093.84
2023-05-18T18:30:26.944Z,101093.44
2023-05-18T18:32:54.833Z,101090.44
2023-05-18T18:35:23.839Z,101095.38
2023-05-18T18:37:50.546Z,101100.31
2023-05-18T18:40:19.107Z,101099.78
2023-05-18T18:42:48.447Z,101090.19
2023-05-18T18:45:15.116Z,101082.56
2023-05-18T18:47:42.082Z,101088.16
2023-05-18T18:50:09.065Z,101084.13
2023-05-18T18:52:35.703Z,101088.84
2023-05-18T18:55:02.440Z,101090.13
2023-05-18T18:57:29.233Z,101088.66
2023-05-18T18:59:56.394Z,101085.50
2023-05-18T19:02:24.586Z,101085.81
2023-05-18T19:04:51.281Z,101087.81
2023-05-18T19:07:18.123Z,101088.06
2023-05-18T19:09:45.704Z,101086.69
2023-05-18T19:12:12.333Z,101086.06
2023-05-18T19:14:39.078Z,101090.00
2023-05-18T19:17:05.828Z,101090.44
2023-05-18T19:19:32.731Z,101090.06
2023-05-18T19:22:02.221Z,101088.56
2023-05-18T19:24:35.971Z,101091.41
2023-05-18T19:27:02.865Z,101094.28
2023-05-18T19:29:29.569Z,101090.16
2023-05-18T19:31:59.353Z,101088.75
2023-05-18T19:34:26.092Z,101084.84
2023-05-18T19:36:54.991Z,101098.78
2023-05-18T19:39:21.747Z,101092.13
2023-05-18T19:41:50.566Z,101100.59
2023-05-18T19:44:17.256Z,101097.44
2023-05-18T19:46:44.785Z,101094.13
2023-05-18T19:49:14.165Z,101094.28
2023-05-18T19:51:43.432Z,101099.69
2023-05-18T19:54:11.324Z,101100.09
2023-05-18T19:56:38.076Z,101093.25
2023-05-18T19:59:06.156Z,101095.13
2023-05-18T20:01:35.379Z,101095.34
2023-05-18T20:04:04.375Z,101097.38
2023-05-18T20:06:34.064Z,101092.25
2023-05-18T20:09:07.803Z,101093.31
2023-05-18T20:11:37.593Z,101096.16
2023-05-18T20:14:06.210Z,101089.28
2023-05-18T20:16:39.368Z,101096.50
2023-05-18T20:19:10.169Z,101090.47
2023-05-18T20:21:39.311Z,101089.06
2023-05-18T20:24:06.206Z,101088.31
2023-05-18T20:26:35.214Z,101095.66
2023-05-18T20:29:02.918Z,101101.19
2023-05-18T20:31:33.042Z,101100.63
2023-05-18T20:34:02.104Z,101099.09
2023-05-18T20:36:34.141Z,101095.78
2023-05-18T20:39:00.831Z,101092.50
2023-05-18T20:41:28.362Z,101096.22
2023-05-18T20:43:55.102Z,101092.88
2023-05-18T20:46:25.032Z,101090.38
2023-05-18T20:49:03.086Z,101092.31
2023-05-18T20:51:33.453Z,101096.91
2023-05-18T20:54:00.207Z,101093.66
2023-05-18T20:56:27.002Z,101093.78
2023-05-18T20:58:56.738Z,101097.47
2023-05-18T21:01:28.942Z,101092.25
2023-05-18T21:04:11.121Z,101095.00
2023-05-18T21:06:43.572Z,101089.75
2023-05-18T21:09:10.192Z,101098.72
2023-05-18T21:11:39.966Z,101088.22
2023-05-18T21:14:09.603Z,101091.91
2023-05-18T21:16:44.481Z,101089.50
2023-05-18T21:19:16.439Z,101088.03
2023-05-18T21:21:49.077Z,101090.03
2023-05-18T21:24:15.881Z,101092.91
2023-05-18T21:26:42.566Z,101090.50
2023-05-18T21:29:13.083Z,101087.97
2023-05-18T21:31:40.106Z,101089.06
2023-05-18T21:34:30.459Z,101097.22
2023-05-18T21:37:03.733Z,101088.50
2023-05-18T21:39:43.137Z,101090.38
2023-05-18T21:42:15.809Z,101090.50
2023-05-18T21:44:50.801Z,101094.09
2023-05-18T21:47:17.408Z,101094.16
2023-05-18T21:49:44.300Z,101091.63
2023-05-18T21:52:17.828Z,101091.81
2023-05-18T21:54:44.542Z,101091.06
2023-05-18T21:57:11.483Z,101087.63
2023-05-18T21:59:39.225Z,101091.28
2023-05-18T22:02:25.085Z,101090.53
2023-05-18T22:04:53.195Z,101092.38
2023-05-18T22:07:29.969Z,101094.38
2023-05-18T22:09:56.668Z,101089.97
2023-05-18T22:12:23.629Z,101086.47
2023-05-18T22:14:59.110Z,101090.97
2023-05-18T22:17:28.920Z,101090.31
2023-05-18T22:19:58.042Z,101092.19
2023-05-18T22:22:30.702Z,101095.84
2023-05-18T22:24:59.644Z,101077.72
2023-05-18T22:27:26.483Z,101081.28
2023-05-18T22:29:53.124Z,101084.97
2023-05-18T22:32:23.797Z,101084.31
2023-05-18T22:37:39.251Z,101089.94
2023-05-18T22:40:06.857Z,101080.31
2023-05-18T22:42:46.535Z,101077.97
2023-05-18T22:45:14.032Z,101082.31
2023-05-18T22:47:43.372Z,101085.88
2023-05-18T22:50:12.291Z,101083.28
2023-05-18T22:52:47.778Z,101078.94
2023-05-18T22:58:13.479Z,101077.34
2023-05-18T23:00:44.564Z,101072.28
2023-05-18T23:03:17.200Z,101058.50
2023-05-18T23:05:48.060Z,101077.06
2023-05-18T23:08:15.698Z,101068.44
2023-05-18T23:10:45.429Z,101059.72
2023-05-18T23:13:21.140Z,101059.84
2023-05-18T23:15:50.504Z,101061.75
2023-05-18T23:18:21.090Z,101062.75
2023-05-18T23:20:51.538Z,101068.09
2023-05-18T23:23:18.197Z,101056.81
2023-05-18T23:25:48.056Z,101061.41
2023-05-18T23:28:16.719Z,101065.03
2023-05-18T23:30:43.440Z,101063.31
2023-05-18T23:33:17.137Z,101054.56
2023-05-18T23:35:49.418Z,101067.91
2023-05-18T23:38:26.700Z,101051.25
2023-05-18T23:41:02.943Z,101062.75
2023-05-18T23:43:32.267Z,101061.13
2023-05-18T23:46:00.672Z,101058.59
2023-05-18T23:48:31.610Z,101060.50
2023-05-18T23:51:04.293Z,101057.09
2023-05-18T23:53:37.197Z,101056.34
2023-05-18T23:56:07.348Z,101057.25
2023-05-18T23:58:54.588Z,101052.13
